Time;durP1;ratioP1;P1;durP2;ratioP2;P2;SDS_P1;SDS_P2;PMS_P1;PMS_P2;Temp;Humidity;BMP_temperature;BMP_pressure;BME280_temperature;BME280_humidity;BME280_pressure;Samples;Min_cycle;Max_cycle;Signal;HPM_P1;HPM_P2
2023/04/14 00:00:33;;;;;;;6.10;2.58;;;5.10;99.90;;;;;;4963392;28;20050;-88
2023/04/14 00:02:59;;;;;;;8.02;2.70;;;5.10;99.90;;;;;;4996165;28;20038;-88
2023/04/14 00:05:32;;;;;;;8.30;3.42;;;5.10;99.90;;;;;;4980206;28;20398;-88
2023/04/14 00:07:57;;;;;;;8.98;3.17;;;5.20;99.90;;;;;;4963503;28;20101;-87
2023/04/14 00:10:23;;;;;;;7.25;2.70;;;5.30;99.90;;;;;;4995847;28;20139;-87
2023/04/14 00:12:49;;;;;;;13.52;4.95;;;5.30;99.90;;;;;;4994978;28;20406;-88
2023/04/14 00:15:15;;;;;;;6.25;2.47;;;5.40;99.90;;;;;;4979558;28;20057;-88
2023/04/14 00:17:40;;;;;;;5.18;2.60;;;5.30;99.90;;;;;;4963092;28;20658;-89
2023/04/14 00:20:07;;;;;;;8.02;2.55;;;5.30;99.90;;;;;;4978747;28;20045;-88
2023/04/14 00:22:33;;;;;;;6.93;3.22;;;5.20;99.90;;;;;;4980120;28;20054;-89
2023/04/14 00:25:00;;;;;;;7.05;2.35;;;5.20;99.90;;;;;;4981242;28;20046;-89
2023/04/14 00:27:26;;;;;;;7.57;2.35;;;5.20;99.90;;;;;;4994993;28;20061;-88
2023/04/14 00:29:51;;;;;;;3.67;2.30;;;5.10;99.90;;;;;;4978928;28;20034;-89
2023/04/14 00:32:17;;;;;;;5.05;2.60;;;5.10;99.90;;;;;;4994684;28;20050;-89
2023/04/14 00:34:43;;;;;;;7.35;2.53;;;5.00;99.90;;;;;;4988768;28;20053;-88
2023/04/14 00:37:08;;;;;;;8.27;2.63;;;5.00;99.90;;;;;;5015039;28;20503;-89
2023/04/14 00:39:34;;;;;;;7.88;2.70;;;4.90;99.90;;;;;;4997747;28;20051;-88
2023/04/14 00:42:03;;;;;;;7.90;3.78;;;4.90;99.90;;;;;;5014485;28;20081;-87
2023/04/14 00:44:29;;;;;;;5.45;2.65;;;4.90;99.90;;;;;;4998419;28;20042;-88
2023/04/14 00:46:55;;;;;;;6.72;3.13;;;4.80;99.90;;;;;;4998018;28;20072;-87
2023/04/14 00:49:21;;;;;;;5.90;2.72;;;4.90;99.90;;;;;;4997394;28;20053;-88
2023/04/14 00:51:47;;;;;;;10.45;3.28;;;4.80;99.90;;;;;;4997839;28;20060;-90
2023/04/14 00:54:14;;;;;;;8.35;2.97;;;4.80;99.90;;;;;;5014272;28;20149;-88
2023/04/14 00:56:40;;;;;;;8.80;3.30;;;4.80;99.90;;;;;;4998053;28;20055;-88
2023/04/14 00:59:06;;;;;;;3.97;2.70;;;5.20;99.90;;;;;;4981246;28;20045;-88
2023/04/14 01:06:42;;;;;;;8.18;2.80;;;4.60;99.90;;;;;;5552131;23;20063;-83
2023/04/14 01:09:08;;;;;;;4.15;2.80;;;4.60;99.90;;;;;;4922442;29;20053;-82
2023/04/14 01:11:51;;;;;;;8.27;3.03;;;4.50;99.90;;;;;;4930938;29;20166;-84
2023/04/14 01:14:22;;;;;;;10.93;3.10;;;4.50;99.90;;;;;;4922815;29;20055;-83
2023/04/14 01:16:49;;;;;;;7.03;2.55;;;5.10;99.90;;;;;;4916008;29;20058;-84
2023/04/14 01:19:58;;;;;;;8.57;3.20;;;4.50;99.90;;;;;;4916407;29;20090;-83
2023/04/14 01:22:25;;;;;;;4.75;2.90;;;4.50;99.90;;;;;;4904254;29;20064;-83
2023/04/14 01:25:05;;;;;;;7.43;2.75;;;4.90;99.90;;;;;;4916344;29;20044;-83
2023/04/14 01:27:33;;;;;;;6.57;2.70;;;4.40;99.90;;;;;;4932546;29;20059;-83
2023/04/14 01:30:14;;;;;;;6.95;2.80;;;4.30;99.90;;;;;;4916380;29;20063;-83
2023/04/14 01:32:43;;;;;;;10.32;3.05;;;4.30;99.90;;;;;;4931909;29;20052;-83
2023/04/14 01:35:19;;;;;;;5.10;3.03;;;4.30;99.90;;;;;;4900757;29;20051;-83
2023/04/14 01:37:47;;;;;;;8.98;2.70;;;4.30;99.90;;;;;;4917504;29;20051;-82
2023/04/14 01:40:14;;;;;;;6.75;2.60;;;4.30;99.90;;;;;;4916278;29;20062;-82
2023/04/14 01:42:45;;;;;;;7.20;3.10;;;5.50;99.90;;;;;;4916190;29;20078;-82
2023/04/14 01:45:23;;;;;;;4.72;2.95;;;4.40;99.90;;;;;;4900918;29;20055;-82
2023/04/14 01:47:49;;;;;;;4.20;2.75;;;4.40;99.90;;;;;;4900183;29;20052;-83
2023/04/14 01:50:15;;;;;;;7.20;2.75;;;4.40;99.90;;;;;;4899891;29;20058;-83
2023/04/14 01:52:42;;;;;;;8.40;2.80;;;4.40;99.90;;;;;;4931169;29;20074;-83
2023/04/14 01:55:08;;;;;;;10.05;2.70;;;4.50;99.90;;;;;;4899398;29;20060;-82
2023/04/14 01:57:35;;;;;;;8.25;3.40;;;4.50;99.90;;;;;;4915564;29;20571;-82
2023/04/14 02:00:01;;;;;;;6.57;2.63;;;4.50;99.90;;;;;;4899532;29;20109;-83
2023/04/14 02:02:26;;;;;;;5.70;2.75;;;4.50;99.90;;;;;;4899541;29;20075;-83
2023/04/14 02:04:52;;;;;;;5.72;2.38;;;4.50;99.90;;;;;;4899813;29;20059;-83
2023/04/14 02:07:18;;;;;;;4.07;2.42;;;4.50;99.90;;;;;;4899211;29;20064;-83
2023/04/14 02:09:44;;;;;;;6.35;2.80;;;4.50;99.90;;;;;;4914684;29;20060;-83
2023/04/14 02:12:10;;;;;;;8.73;3.53;;;4.50;99.90;;;;;;4884482;29;20395;-84
2023/04/14 02:14:36;;;;;;;9.45;2.78;;;4.50;99.90;;;;;;4900309;29;20763;-83
2023/04/14 02:17:02;;;;;;;8.25;3.10;;;4.50;99.90;;;;;;4884626;29;20090;-82
2023/04/14 02:19:27;;;;;;;8.88;3.00;;;4.40;99.90;;;;;;4899896;29;20046;-83
2023/04/14 02:21:53;;;;;;;5.45;3.10;;;4.70;99.90;;;;;;4899732;29;20110;-83
2023/04/14 02:24:20;;;;;;;8.75;3.33;;;4.50;99.90;;;;;;4915909;29;20106;-83
2023/04/14 02:27:13;;;;;;;6.60;3.38;;;4.40;99.90;;;;;;4900026;29;20063;-83
2023/04/14 02:29:40;;;;;;;9.77;3.03;;;4.40;99.90;;;;;;4915721;29;20526;-83
2023/04/14 02:32:10;;;;;;;6.93;3.22;;;4.50;99.90;;;;;;4899231;29;20146;-82
2023/04/14 02:34:40;;;;;;;6.68;3.15;;;4.60;99.90;;;;;;4930813;29;20103;-83
2023/04/14 02:37:11;;;;;;;6.60;3.10;;;4.50;99.90;;;;;;4930648;29;20499;-84
2023/04/14 02:39:41;;;;;;;4.78;3.10;;;4.50;99.90;;;;;;4899421;29;20047;-84
2023/04/14 02:42:17;;;;;;;7.75;2.60;;;4.50;99.90;;;;;;4899897;29;20055;-83
2023/04/14 02:44:59;;;;;;;6.85;2.95;;;4.60;99.90;;;;;;4930916;29;20059;-83
2023/04/14 02:47:27;;;;;;;9.90;3.20;;;4.70;99.90;;;;;;4916315;29;20054;-83
2023/04/14 02:49:53;;;;;;;6.10;3.03;;;4.50;99.90;;;;;;4918994;29;20504;-82
2023/04/14 02:52:19;;;;;;;6.90;3.20;;;4.60;99.90;;;;;;4918296;29;20067;-83
2023/04/14 02:54:45;;;;;;;8.88;3.22;;;4.60;99.90;;;;;;4884561;29;20060;-83
2023/04/14 02:57:11;;;;;;;7.18;3.60;;;4.60;99.90;;;;;;4899417;29;20071;-84
2023/04/14 02:59:36;;;;;;;4.70;3.22;;;4.60;99.90;;;;;;4899170;29;20048;-84
2023/04/14 03:02:03;;;;;;;7.15;3.42;;;5.00;99.90;;;;;;4914510;29;20056;-84
2023/04/14 03:04:31;;;;;;;5.85;3.40;;;4.60;99.90;;;;;;4918356;29;20633;-82
2023/04/14 03:06:57;;;;;;;5.38;3.33;;;4.60;99.90;;;;;;4901356;29;20064;-82
2023/04/14 03:09:23;;;;;;;6.90;3.65;;;4.60;99.90;;;;;;4899426;29;20056;-83
2023/04/14 03:11:48;;;;;;;7.50;3.30;;;4.60;99.90;;;;;;4915306;29;20048;-82
2023/04/14 03:14:14;;;;;;;9.85;4.55;;;4.60;99.90;;;;;;4899578;29;20200;-83
2023/04/14 03:16:40;;;;;;;6.80;3.10;;;4.90;99.90;;;;;;4930473;29;20095;-82
2023/04/14 03:19:07;;;;;;;6.65;3.08;;;4.60;99.90;;;;;;4914970;29;20142;-84
2023/04/14 03:21:38;;;;;;;7.95;3.47;;;5.10;99.90;;;;;;4903624;29;20115;-83
2023/04/14 03:24:05;;;;;;;6.57;3.33;;;4.60;99.90;;;;;;4918640;29;20067;-83
2023/04/14 03:26:31;;;;;;;6.78;3.00;;;4.60;99.90;;;;;;4918925;29;20047;-83
2023/04/14 03:28:57;;;;;;;8.75;2.83;;;4.60;99.90;;;;;;4918453;29;20059;-82
2023/04/14 03:31:27;;;;;;;6.28;3.10;;;4.60;99.90;;;;;;4902926;29;20040;-83
2023/04/14 03:33:55;;;;;;;7.70;2.90;;;4.60;99.90;;;;;;4918156;29;20454;-83
2023/04/14 03:36:21;;;;;;;6.13;3.30;;;4.80;99.90;;;;;;4903088;29;20059;-83
2023/04/14 03:38:48;;;;;;;7.82;4.22;;;4.80;99.90;;;;;;4917507;29;20054;-83
2023/04/14 03:41:13;;;;;;;8.57;3.30;;;5.10;99.90;;;;;;4918132;29;20503;-83
2023/04/14 03:43:40;;;;;;;7.57;3.22;;;5.30;99.90;;;;;;4902008;29;20174;-83
2023/04/14 03:46:05;;;;;;;7.60;3.50;;;4.90;99.90;;;;;;4902434;29;20585;-83
2023/04/14 03:48:33;;;;;;;7.72;3.13;;;4.90;99.90;;;;;;4901972;29;20048;-82
2023/04/14 03:50:58;;;;;;;7.55;3.40;;;5.70;99.90;;;;;;4918206;29;20150;-82
2023/04/14 03:53:24;;;;;;;9.35;3.72;;;4.90;99.90;;;;;;4902211;29;20191;-84
2023/04/14 03:55:50;;;;;;;5.30;3.13;;;4.80;99.90;;;;;;4918332;29;20126;-83
2023/04/14 03:58:16;;;;;;;6.65;3.67;;;4.80;99.90;;;;;;4917768;29;20058;-83
2023/04/14 04:00:41;;;;;;;5.85;3.50;;;5.20;99.90;;;;;;4917545;29;20051;-82
2023/04/14 04:03:07;;;;;;;7.47;3.70;;;4.70;99.90;;;;;;4902420;29;20086;-82
2023/04/14 04:05:37;;;;;;;5.85;3.40;;;4.70;99.90;;;;;;4918884;29;20496;-82
2023/04/14 04:08:03;;;;;;;5.05;3.45;;;4.60;99.90;;;;;;4902196;29;20114;-81
2023/04/14 04:10:35;;;;;;;7.18;3.33;;;4.50;99.90;;;;;;4917765;29;20091;-82
2023/04/14 04:13:01;;;;;;;6.63;3.25;;;4.50;99.90;;;;;;4918155;29;20067;-83
2023/04/14 04:15:27;;;;;;;6.47;3.47;;;4.30;99.90;;;;;;4933992;29;20407;-82
2023/04/14 04:17:53;;;;;;;9.48;3.95;;;4.20;99.90;;;;;;4886668;29;20842;-83
2023/04/14 04:20:19;;;;;;;7.13;3.50;;;4.10;99.90;;;;;;4917543;29;20146;-84
2023/04/14 04:22:45;;;;;;;9.90;3.92;;;4.10;99.90;;;;;;4902404;29;20055;-83
2023/04/14 04:25:10;;;;;;;8.25;3.90;;;4.30;99.90;;;;;;4917904;29;20519;-83
2023/04/14 04:27:36;;;;;;;6.80;3.60;;;3.90;99.90;;;;;;4917732;29;20059;-83
2023/04/14 04:30:05;;;;;;;8.50;4.35;;;3.90;99.90;;;;;;4918128;29;20069;-83
2023/04/14 04:32:31;;;;;;;10.88;3.97;;;3.80;99.90;;;;;;4931162;29;20197;-84
2023/04/14 04:34:56;;;;;;;9.13;3.97;;;3.70;99.90;;;;;;4952827;28;20138;-84
2023/04/14 04:37:27;;;;;;;10.48;7.40;;;3.70;99.90;;;;;;4921007;29;20053;-83
2023/04/14 04:39:57;;;;;;;8.63;3.97;;;3.70;99.90;;;;;;4937046;29;20082;-83
2023/04/14 04:42:23;;;;;;;10.38;4.40;;;3.70;99.90;;;;;;4921650;29;20058;-83
2023/04/14 04:44:48;;;;;;;7.65;4.53;;;3.70;99.90;;;;;;4939575;29;20054;-84
2023/04/14 04:47:14;;;;;;;11.40;5.40;;;3.60;99.90;;;;;;4939029;29;20781;-83
2023/04/14 04:49:40;;;;;;;7.05;4.28;;;3.70;99.90;;;;;;4920093;29;20057;-83
2023/04/14 04:52:05;;;;;;;11.05;4.82;;;3.60;99.90;;;;;;4951830;29;20114;-84
2023/04/14 04:54:31;;;;;;;11.55;4.50;;;3.60;99.90;;;;;;4919841;29;20491;-83
2023/04/14 04:56:57;;;;;;;7.97;4.15;;;3.70;99.90;;;;;;4919927;29;20089;-83
2023/04/14 04:59:23;;;;;;;8.05;5.07;;;3.60;99.90;;;;;;4935461;29;20104;-84
2023/04/14 05:01:49;;;;;;;7.55;4.35;;;4.50;99.90;;;;;;4919591;29;20770;-84
2023/04/14 05:04:15;;;;;;;6.00;4.43;;;3.60;99.90;;;;;;4918942;29;20050;-83
2023/04/14 05:06:40;;;;;;;9.13;4.47;;;3.90;99.90;;;;;;4919534;29;20106;-84
2023/04/14 05:09:06;;;;;;;8.52;4.72;;;3.60;99.90;;;;;;4951488;29;20071;-84
2023/04/14 05:11:32;;;;;;;6.32;4.72;;;4.20;99.90;;;;;;4951163;28;20135;-83
2023/04/14 05:13:58;;;;;;;8.98;4.65;;;4.50;99.90;;;;;;4951596;28;20058;-82
2023/04/14 05:16:24;;;;;;;7.78;4.93;;;3.60;99.90;;;;;;4954011;28;20142;-81
2023/04/14 05:18:50;;;;;;;5.28;4.05;;;3.60;99.90;;;;;;4920488;29;20069;-82
2023/04/14 05:21:15;;;;;;;13.10;5.03;;;3.60;99.90;;;;;;4919085;29;20055;-83
2023/04/14 05:23:42;;;;;;;10.85;5.10;;;3.70;99.90;;;;;;4919131;29;20138;-83
2023/04/14 05:26:09;;;;;;;10.65;5.07;;;3.70;99.90;;;;;;4951656;29;20051;-83
2023/04/14 05:28:35;;;;;;;7.40;4.90;;;3.70;99.90;;;;;;4950949;28;20059;-83
2023/04/14 05:31:01;;;;;;;13.23;5.07;;;4.20;99.90;;;;;;4903925;29;20051;-83
2023/04/14 05:33:26;;;;;;;8.98;4.60;;;3.90;99.90;;;;;;4934356;29;20149;-83
2023/04/14 05:35:52;;;;;;;5.40;4.53;;;4.10;99.90;;;;;;4934991;29;20561;-83
2023/04/14 05:38:18;;;;;;;9.55;4.90;;;4.30;99.90;;;;;;4934925;29;20082;-83
2023/04/14 05:40:44;;;;;;;13.30;5.35;;;4.60;99.90;;;;;;4918519;29;20087;-83
2023/04/14 05:43:10;;;;;;;8.88;5.00;;;4.70;99.90;;;;;;4934248;28;20090;-83
2023/04/14 05:45:35;;;;;;;7.47;4.88;;;5.10;99.90;;;;;;4934627;29;20063;-84
2023/04/14 05:48:01;;;;;;;7.70;4.55;;;5.70;99.90;;;;;;4950352;29;20487;-83
2023/04/14 05:50:27;;;;;;;6.15;3.92;;;6.30;99.90;;;;;;4919341;29;20059;-83
2023/04/14 05:52:53;;;;;;;8.55;4.35;;;7.00;99.90;;;;;;4951654;29;20057;-83
2023/04/14 05:55:18;;;;;;;6.80;3.40;;;7.80;99.90;;;;;;4969304;29;20077;-83
2023/04/14 05:57:44;;;;;;;8.15;3.85;;;8.50;99.90;;;;;;4937364;29;20059;-83
2023/04/14 06:00:11;;;;;;;6.43;3.90;;;9.50;99.90;;;;;;4918518;29;20464;-81
2023/04/14 06:02:41;;;;;;;6.60;3.63;;;9.30;99.90;;;;;;4950087;29;20138;-82
2023/04/14 06:05:07;;;;;;;6.88;3.53;;;9.50;99.90;;;;;;4934501;29;20051;-83
2023/04/14 06:07:33;;;;;;;7.82;3.70;;;10.20;99.90;;;;;;4950583;28;20086;-82
2023/04/14 06:09:59;;;;;;;8.93;3.38;;;10.50;99.90;;;;;;4950406;28;20130;-83
2023/04/14 06:12:25;;;;;;;5.28;3.47;;;11.10;99.90;;;;;;4934569;29;20130;-82
2023/04/14 06:14:50;;;;;;;5.30;3.10;;;11.50;99.50;;;;;;4935701;29;20070;-83
2023/04/14 06:17:16;;;;;;;7.75;3.75;;;11.70;99.40;;;;;;4938361;29;20055;-83
2023/04/14 06:19:41;;;;;;;4.68;2.40;;;12.30;97.20;;;;;;4919108;29;20051;-82
2023/04/14 06:22:08;;;;;;;6.00;2.88;;;13.00;99.40;;;;;;4950153;29;20134;-84
2023/04/14 06:24:34;;;;;;;7.60;2.65;;;12.80;96.40;;;;;;4950328;29;20130;-83
2023/04/14 06:27:02;;;;;;;5.05;3.10;;;13.90;99.40;;;;;;4919568;29;20122;-82
2023/04/14 06:29:28;;;;;;;5.90;2.58;;;14.10;95.20;;;;;;4950466;29;20055;-82
2023/04/14 06:31:55;;;;;;;4.90;2.40;;;14.10;93.10;;;;;;4918850;29;20066;-82
2023/04/14 06:34:20;;;;;;;4.30;2.30;;;14.90;94.90;;;;;;4950531;28;20431;-83
2023/04/14 06:36:46;;;;;;;5.57;2.70;;;15.20;96.30;;;;;;4934218;29;20062;-83
2023/04/14 06:39:12;;;;;;;6.03;2.45;;;14.80;92.20;;;;;;4949137;29;20506;-83
2023/04/14 06:41:38;;;;;;;7.90;3.10;;;15.50;93.30;;;;;;4934049;29;20557;-82
2023/04/14 06:44:03;;;;;;;6.20;2.90;;;15.60;93.80;;;;;;4949764;29;20051;-83
2023/04/14 06:46:29;;;;;;;6.88;2.70;;;15.70;93.90;;;;;;4918243;29;20061;-83
2023/04/14 06:48:55;;;;;;;8.13;2.97;;;15.70;94.90;;;;;;4949586;29;20478;-83
2023/04/14 06:51:20;;;;;;;5.78;2.83;;;16.10;92.30;;;;;;4949897;29;20066;-83
2023/04/14 06:53:46;;;;;;;3.78;2.60;;;16.50;90.20;;;;;;4949903;29;20499;-83
2023/04/14 06:56:12;;;;;;;6.97;2.80;;;15.60;90.80;;;;;;4935527;29;20062;-83
2023/04/14 06:58:39;;;;;;;8.07;3.35;;;16.00;91.50;;;;;;4906175;29;20051;-84
2023/04/14 07:01:04;;;;;;;7.55;2.33;;;15.90;89.20;;;;;;4937605;29;20142;-83
2023/04/14 07:03:30;;;;;;;6.82;2.30;;;15.40;88.70;;;;;;4921295;29;20174;-83
2023/04/14 07:06:03;;;;;;;4.95;2.60;;;15.90;89.50;;;;;;4937432;29;20066;-84
2023/04/14 07:08:31;;;;;;;5.77;2.23;;;16.30;87.60;;;;;;4954264;28;20075;-83
2023/04/14 07:11:04;;;;;;;5.18;2.60;;;16.00;90.10;;;;;;4952698;29;20051;-86
2023/04/14 07:13:30;;;;;;;4.90;2.28;;;16.40;86.80;;;;;;4936629;29;20815;-85
2023/04/14 07:15:56;;;;;;;5.22;2.42;;;16.10;88.10;;;;;;4954009;29;20043;-87
2023/04/14 07:18:22;;;;;;;9.85;2.92;;;16.40;90.30;;;;;;4937643;29;20142;-85
2023/04/14 07:20:51;;;;;;;6.70;2.05;;;16.30;86.50;;;;;;4954656;28;20043;-87
2023/04/14 07:23:17;;;;;;;8.73;2.97;;;16.60;87.90;;;;;;4957505;28;20043;-87
2023/04/14 07:25:43;;;;;;;5.53;2.03;;;16.80;88.50;;;;;;4940802;29;20051;-87
2023/04/14 07:28:09;;;;;;;6.75;2.10;;;17.20;89.20;;;;;;4953769;28;20066;-87
2023/04/14 07:30:35;;;;;;;7.93;2.17;;;17.50;83.30;;;;;;4938198;29;20180;-87
2023/04/14 07:33:01;;;;;;;6.40;2.13;;;17.80;87.20;;;;;;4937233;29;20138;-87
2023/04/14 07:35:27;;;;;;;8.48;2.30;;;17.70;85.70;;;;;;4937762;29;20130;-85
2023/04/14 07:37:52;;;;;;;6.30;2.20;;;16.90;84.70;;;;;;4923033;29;20514;-87
2023/04/14 07:40:19;;;;;;;5.80;1.90;;;17.00;87.70;;;;;;4938514;29;20051;-85
2023/04/14 07:42:45;;;;;;;8.43;2.03;;;17.20;85.00;;;;;;4954895;28;20515;-85
2023/04/14 07:45:11;;;;;;;5.95;2.13;;;17.80;86.20;;;;;;4953813;28;20067;-87
2023/04/14 07:47:36;;;;;;;4.55;1.70;;;17.70;85.60;;;;;;4923605;29;20051;-87
2023/04/14 07:50:02;;;;;;;6.38;2.08;;;18.20;84.10;;;;;;4955965;29;20078;-87
2023/04/14 07:52:28;;;;;;;5.25;1.92;;;18.10;80.80;;;;;;4923422;29;20051;-86
2023/04/14 07:54:54;;;;;;;7.32;2.22;;;18.60;83.60;;;;;;4939039;29;20495;-86
2023/04/14 07:57:21;;;;;;;7.70;1.75;;;18.40;82.90;;;;;;4939409;29;20039;-87
2023/04/14 07:59:47;;;;;;;6.90;1.80;;;18.30;83.60;;;;;;4948706;29;20039;-87
2023/04/14 08:02:12;;;;;;;8.02;1.92;;;18.40;82.00;;;;;;4953947;29;20130;-86
2023/04/14 08:04:38;;;;;;;7.22;2.30;;;18.30;83.70;;;;;;4954668;29;20533;-85
2023/04/14 08:07:04;;;;;;;7.28;1.98;;;18.20;83.20;;;;;;4937752;29;20488;-86
2023/04/14 08:09:29;;;;;;;7.63;1.92;;;18.60;79.40;;;;;;4937428;29;20511;-86
2023/04/14 08:11:58;;;;;;;6.78;1.83;;;17.80;83.50;;;;;;4952556;28;20058;-86
2023/04/14 08:14:24;;;;;;;4.10;1.95;;;17.80;84.30;;;;;;4937223;29;21158;-86
2023/04/14 08:16:50;;;;;;;6.93;1.90;;;18.40;83.10;;;;;;4952725;29;20082;-86
2023/04/14 08:19:15;;;;;;;5.13;2.00;;;18.30;83.40;;;;;;4936705;29;20383;-85
2023/04/14 08:21:41;;;;;;;7.03;1.98;;;18.70;82.80;;;;;;4952510;29;20047;-83
2023/04/14 08:24:08;;;;;;;6.10;1.70;;;18.60;82.10;;;;;;4936682;29;20058;-87
2023/04/14 08:26:34;;;;;;;4.40;1.63;;;18.10;81.60;;;;;;4937214;29;20085;-85
2023/04/14 08:29:00;;;;;;;10.90;2.00;;;17.80;83.60;;;;;;4953164;29;20083;-86
2023/04/14 08:31:26;;;;;;;7.07;1.73;;;18.60;82.20;;;;;;4940076;29;20055;-86
2023/04/14 08:33:51;;;;;;;8.68;2.08;;;17.60;84.00;;;;;;4938143;29;20085;-87
2023/04/14 08:36:18;;;;;;;5.88;2.25;;;18.20;83.10;;;;;;4937726;29;20479;-87
2023/04/14 08:38:44;;;;;;;8.10;2.05;;;17.50;80.60;;;;;;4924324;29;20095;-84
2023/04/14 08:41:10;;;;;;;7.68;1.90;;;18.60;82.20;;;;;;4958179;28;20461;-87
2023/04/14 08:43:35;;;;;;;6.13;2.05;;;18.50;80.80;;;;;;4941881;29;20177;-87
2023/04/14 08:46:01;;;;;;;6.10;2.35;;;18.10;82.30;;;;;;4940049;29;20506;-85
2023/04/14 08:48:29;;;;;;;7.57;2.00;;;18.10;81.00;;;;;;4923827;29;20054;-85
2023/04/14 08:51:03;;;;;;;6.50;2.10;;;18.40;80.60;;;;;;4938605;29;20134;-86
2023/04/14 08:53:30;;;;;;;7.43;1.92;;;18.60;81.10;;;;;;4927024;29;20094;-85
2023/04/14 08:55:55;;;;;;;5.78;1.83;;;18.60;82.40;;;;;;4943343;29;20070;-87
2023/04/14 08:58:21;;;;;;;10.07;1.85;;;18.70;78.60;;;;;;4952957;28;20055;-88
2023/04/14 09:00:47;;;;;;;9.07;2.25;;;18.30;80.20;;;;;;4953285;28;20043;-88
2023/04/14 09:03:12;;;;;;;5.63;1.85;;;18.70;80.30;;;;;;4935496;29;20376;-84
2023/04/14 09:05:39;;;;;;;7.43;1.92;;;18.50;78.60;;;;;;4935765;29;20079;-84
2023/04/14 09:08:05;;;;;;;6.43;1.70;;;18.30;77.50;;;;;;4935780;29;20129;-85
2023/04/14 09:10:30;;;;;;;6.25;1.90;;;18.30;78.50;;;;;;4919819;29;20408;-84
2023/04/14 09:12:56;;;;;;;4.75;1.67;;;18.10;77.80;;;;;;4935719;29;20047;-82
2023/04/14 09:15:26;;;;;;;6.80;1.98;;;18.30;78.30;;;;;;4936146;29;20184;-83
2023/04/14 09:17:52;;;;;;;7.35;2.00;;;18.60;80.80;;;;;;4950062;28;20070;-81
2023/04/14 09:20:18;;;;;;;6.97;2.20;;;18.50;79.60;;;;;;4950023;29;20487;-83
2023/04/14 09:22:44;;;;;;;4.03;1.83;;;18.50;81.40;;;;;;4934164;29;20086;-83
2023/04/14 09:25:10;;;;;;;5.95;2.08;;;18.70;78.00;;;;;;4934766;29;20770;-82
2023/04/14 09:27:36;;;;;;;7.32;2.67;;;19.30;76.80;;;;;;4934334;29;20114;-83
2023/04/14 09:30:02;;;;;;;5.60;1.90;;;18.60;75.40;;;;;;4934077;29;20039;-83
2023/04/14 09:32:27;;;;;;;9.65;3.03;;;18.20;79.40;;;;;;4931627;29;20082;-83
2023/04/14 09:34:53;;;;;;;5.78;2.20;;;18.20;78.40;;;;;;4951268;29;20534;-82
2023/04/14 09:37:19;;;;;;;5.30;1.90;;;18.40;76.90;;;;;;4934569;29;20089;-83
2023/04/14 09:39:51;;;;;;;7.05;2.00;;;18.00;76.00;;;;;;4934471;29;20519;-84
2023/04/14 09:42:17;;;;;;;4.90;1.92;;;18.50;75.20;;;;;;4950346;29;20044;-89
2023/04/14 09:44:53;;;;;;;6.90;1.88;;;18.10;76.70;;;;;;4950677;29;20050;-88
2023/04/14 09:47:19;;;;;;;5.88;1.92;;;18.50;75.10;;;;;;4934388;29;20058;-89
2023/04/14 09:50:03;;;;;;;5.47;2.20;;;19.20;77.00;;;;;;4934783;29;20051;-85
2023/04/14 09:52:39;;;;;;;6.18;2.40;;;19.20;73.30;;;;;;4951809;29;20043;-83
2023/04/14 09:55:07;;;;;;;5.57;2.20;;;18.60;75.40;;;;;;4920943;29;20063;-86
2023/04/14 09:57:34;;;;;;;8.02;2.30;;;19.00;75.40;;;;;;4934060;29;20075;-85
2023/04/14 10:00:00;;;;;;;5.07;2.13;;;19.30;75.60;;;;;;4950977;28;20046;-86
2023/04/14 10:02:25;;;;;;;8.48;2.75;;;19.00;76.90;;;;;;4921007;29;20060;-85
2023/04/14 10:05:05;;;;;;;9.48;2.95;;;19.10;77.50;;;;;;4938708;29;20052;-85
2023/04/14 10:07:31;;;;;;;6.53;2.28;;;18.70;76.60;;;;;;4936266;29;20129;-82
2023/04/14 10:09:56;;;;;;;5.22;2.58;;;18.80;76.40;;;;;;4937015;29;20483;-83
2023/04/14 10:12:22;;;;;;;10.20;2.90;;;19.00;77.10;;;;;;4935007;29;20518;-87
2023/04/14 10:14:48;;;;;;;5.25;2.47;;;18.80;80.10;;;;;;4950474;29;20098;-87
2023/04/14 10:17:13;;;;;;;4.47;2.38;;;18.40;79.00;;;;;;4933905;29;20495;-86
2023/04/14 10:19:39;;;;;;;6.93;2.72;;;18.40;77.60;;;;;;4933775;29;20055;-86
2023/04/14 10:22:05;;;;;;;6.72;2.50;;;18.70;80.20;;;;;;4950324;28;20039;-85
2023/04/14 10:24:31;;;;;;;9.07;3.00;;;19.20;75.50;;;;;;4921136;29;20442;-86
2023/04/14 10:26:57;;;;;;;9.00;2.95;;;19.00;77.90;;;;;;4952153;28;20051;-85
2023/04/14 10:29:23;;;;;;;6.47;2.60;;;19.40;77.50;;;;;;4934048;28;20058;-87
2023/04/14 10:31:53;;;;;;;6.15;2.78;;;19.40;77.60;;;;;;4936763;29;20039;-88
2023/04/14 10:34:20;;;;;;;6.18;2.55;;;19.40;77.10;;;;;;4938471;29;20130;-87
2023/04/14 10:36:47;;;;;;;7.53;2.38;;;19.20;81.00;;;;;;4938607;29;20495;-87
2023/04/14 10:39:14;;;;;;;4.68;2.40;;;18.90;77.30;;;;;;4939168;29;20051;-86
2023/04/14 10:41:47;;;;;;;5.10;2.22;;;18.00;77.20;;;;;;4938534;29;20063;-87
2023/04/14 10:44:34;;;;;;;6.23;2.40;;;18.30;78.20;;;;;;4939549;29;20051;-84
2023/04/14 10:47:04;;;;;;;9.00;2.67;;;18.30;75.70;;;;;;4922925;29;20295;-88
2023/04/14 10:49:37;;;;;;;7.18;2.70;;;18.30;77.60;;;;;;4926717;29;20067;-86
2023/04/14 10:52:06;;;;;;;7.03;3.05;;;18.10;77.50;;;;;;4937449;29;20495;-85
2023/04/14 10:54:56;;;;;;;8.20;3.25;;;17.70;79.20;;;;;;4952534;28;20073;-85
2023/04/14 10:57:23;;;;;;;6.50;2.95;;;17.60;79.10;;;;;;4952415;29;20059;-85
2023/04/14 10:59:52;;;;;;;6.18;3.15;;;18.10;78.40;;;;;;4952817;29;20126;-85
2023/04/14 11:02:31;;;;;;;12.13;4.28;;;18.00;79.40;;;;;;4936334;29;20039;-85
2023/04/14 11:05:10;;;;;;;7.60;3.22;;;17.30;80.50;;;;;;4929119;29;20131;-85
2023/04/14 11:07:53;;;;;;;6.78;3.03;;;17.10;86.20;;;;;;4938446;29;20144;-84
2023/04/14 11:10:19;;;;;;;10.15;2.70;;;17.40;81.10;;;;;;4938035;29;20050;-85
2023/04/14 11:13:05;;;;;;;6.05;2.85;;;17.10;79.50;;;;;;4953246;28;20063;-84
2023/04/14 11:15:55;;;;;;;5.28;2.35;;;16.90;83.40;;;;;;4939758;29;20094;-85
2023/04/14 11:18:36;;;;;;;5.95;2.50;;;16.80;80.10;;;;;;4937664;29;20107;-84
2023/04/14 11:21:06;;;;;;;7.40;2.20;;;16.20;79.40;;;;;;4950432;29;20382;-84
2023/04/14 11:23:33;;;;;;;4.93;2.58;;;16.40;81.90;;;;;;4967558;28;20051;-84
2023/04/14 11:25:58;;;;;;;6.10;2.20;;;16.30;80.80;;;;;;4938263;29;20047;-85
2023/04/14 11:28:31;;;;;;;4.22;2.25;;;16.20;80.30;;;;;;4936536;29;20082;-84
2023/04/14 11:30:58;;;;;;;5.70;2.17;;;16.20;82.00;;;;;;4920761;29;20051;-84
2023/04/14 11:33:33;;;;;;;7.72;2.70;;;16.20;80.70;;;;;;4936367;29;20059;-84
2023/04/14 11:36:00;;;;;;;5.60;2.30;;;16.20;84.10;;;;;;4936991;29;20142;-86
2023/04/14 11:38:26;;;;;;;8.00;2.58;;;16.10;80.10;;;;;;4936917;29;20537;-84
2023/04/14 11:40:51;;;;;;;6.72;2.33;;;15.90;82.00;;;;;;4936530;29;20078;-85
2023/04/14 11:43:17;;;;;;;9.05;2.63;;;16.20;82.20;;;;;;4936470;29;20134;-85
2023/04/14 11:45:44;;;;;;;7.28;2.45;;;16.50;81.60;;;;;;4936182;29;20051;-84
2023/04/14 11:48:11;;;;;;;6.57;2.15;;;16.20;80.90;;;;;;4936402;29;20083;-86
2023/04/14 11:50:41;;;;;;;9.38;2.10;;;16.00;80.90;;;;;;4936423;29;20101;-84
2023/04/14 11:53:12;;;;;;;4.85;2.25;;;16.10;82.40;;;;;;4936384;29;20123;-82
2023/04/14 11:55:43;;;;;;;7.55;2.15;;;16.20;80.40;;;;;;4952174;28;20150;-86
2023/04/14 11:58:09;;;;;;;4.85;2.35;;;16.10;78.10;;;;;;4935234;29;20070;-87
2023/04/14 12:00:35;;;;;;;6.30;2.00;;;15.90;81.30;;;;;;4935589;29;20066;-84
2023/04/14 12:03:02;;;;;;;6.32;2.78;;;15.50;80.10;;;;;;4952007;29;20047;-84
2023/04/14 12:05:30;;;;;;;4.47;2.28;;;15.20;83.20;;;;;;4923493;29;20073;-84
2023/04/14 12:07:59;;;;;;;5.15;2.00;;;15.50;83.30;;;;;;4924919;29;20106;-84
2023/04/14 12:10:25;;;;;;;4.82;2.47;;;15.70;80.00;;;;;;4949416;29;20055;-84
2023/04/14 12:12:59;;;;;;;5.50;2.08;;;15.50;80.50;;;;;;4973521;28;20066;-85
2023/04/14 12:15:25;;;;;;;;;;;15.80;84.30;;;;;;4940132;29;20514;-84
2023/04/14 12:17:51;;;;;;;6.47;2.47;;;15.90;81.90;;;;;;4935250;29;19930;-84
2023/04/14 12:20:17;;;;;;;8.13;2.83;;;15.70;82.20;;;;;;4935451;29;20419;-84
2023/04/14 12:22:43;;;;;;;9.77;2.33;;;15.90;80.90;;;;;;4935043;29;20051;-83
2023/04/14 12:25:10;;;;;;;6.03;2.47;;;15.60;80.70;;;;;;4952596;28;20097;-84
2023/04/14 12:27:36;;;;;;;4.70;2.30;;;15.60;82.40;;;;;;4935384;29;20756;-85
2023/04/14 12:30:01;;;;;;;5.40;2.45;;;15.70;82.00;;;;;;4935249;29;20050;-84
2023/04/14 12:32:29;;;;;;;6.10;2.60;;;15.80;81.20;;;;;;4935856;29;20442;-82
2023/04/14 12:34:59;;;;;;;7.13;2.30;;;15.80;82.00;;;;;;4936755;29;20562;-83
2023/04/14 12:37:26;;;;;;;6.70;2.50;;;15.70;79.00;;;;;;4937307;29;20124;-87
2023/04/14 12:39:56;;;;;;;10.35;3.03;;;15.60;80.20;;;;;;4936184;29;20182;-85
2023/04/14 12:42:22;;;;;;;7.72;2.80;;;15.40;81.60;;;;;;4935376;29;20055;-87
2023/04/14 12:45:00;;;;;;;7.35;2.97;;;15.50;82.30;;;;;;4936562;29;20497;-82
2023/04/14 12:47:33;;;;;;;5.20;3.00;;;15.60;80.70;;;;;;4919657;29;20047;-83
2023/04/14 12:50:21;;;;;;;7.18;2.72;;;15.80;84.20;;;;;;4934954;29;20561;-83
2023/04/14 12:52:46;;;;;;;6.85;2.72;;;15.60;79.80;;;;;;4934424;28;20047;-83
2023/04/14 12:55:29;;;;;;;6.63;2.45;;;15.50;80.50;;;;;;4933614;29;20121;-84
2023/04/14 12:57:55;;;;;;;9.90;2.58;;;15.50;81.30;;;;;;4907714;29;20063;-83